Time;durP1;ratioP1;P1;durP2;ratioP2;P2;SDS_P1;SDS_P2;PMS_P1;PMS_P2;Temp;Humidity;BMP_temperature;BMP_pressure;BME280_temperature;BME280_humidity;BME280_pressure;Samples;Min_cycle;Max_cycle;Signal;HPM_P1;HPM_P2
2021/07/13 00:00:39;;;;;;;12.23;9.05;;;26.10;67.70;;;;;;1935330;74;21019;-48
2021/07/13 00:03:09;;;;;;;11.08;9.40;;;26.00;67.80;;;;;;1935706;73;21023;-49
2021/07/13 00:05:39;;;;;;;13.10;9.25;;;26.00;67.70;;;;;;1935448;74;20995;-50
2021/07/13 00:08:09;;;;;;;12.18;8.60;;;26.00;67.80;;;;;;1935358;74;21023;-51
2021/07/13 00:10:41;;;;;;;11.93;9.80;;;26.10;67.80;;;;;;1935516;74;21085;-51
2021/07/13 00:13:10;;;;;;;11.12;9.20;;;26.00;67.60;;;;;;1935501;74;21027;-48
2021/07/13 00:15:43;;;;;;;12.78;8.80;;;26.00;67.70;;;;;;1935662;73;21020;-50
2021/07/13 00:18:13;;;;;;;9.83;8.58;;;26.10;67.90;;;;;;1935288;74;21116;-47
2021/07/13 00:20:42;;;;;;;12.03;8.70;;;26.10;67.70;;;;;;1935437;74;21078;-48
2021/07/13 00:23:12;;;;;;;11.63;9.18;;;26.10;67.60;;;;;;1935385;74;21081;-48
2021/07/13 00:25:41;;;;;;;10.55;9.25;;;26.10;67.70;;;;;;1935426;74;21019;-49
2021/07/13 00:28:11;;;;;;;14.28;9.28;;;26.00;67.70;;;;;;1935649;74;21096;-48
2021/07/13 00:30:40;;;;;;;11.28;8.43;;;25.90;68.00;;;;;;1935331;74;21097;-50
2021/07/13 00:33:09;;;;;;;10.75;8.48;;;25.90;68.20;;;;;;1935349;74;21027;-47
2021/07/13 00:35:39;;;;;;;12.13;8.25;;;25.90;68.30;;;;;;1934783;74;21062;-50
2021/07/13 00:38:08;;;;;;;13.10;9.58;;;25.90;68.30;;;;;;1935228;74;20996;-47
2021/07/13 00:40:38;;;;;;;11.25;8.83;;;25.90;68.30;;;;;;1935469;74;21020;-50
2021/07/13 00:43:07;;;;;;;12.00;7.78;;;26.00;68.30;;;;;;1935001;74;21066;-50
2021/07/13 00:45:37;;;;;;;12.70;9.10;;;26.00;68.30;;;;;;1935434;73;21148;-51
2021/07/13 00:48:06;;;;;;;11.05;8.98;;;26.00;68.30;;;;;;1935273;74;21059;-49
2021/07/13 00:50:36;;;;;;;12.35;9.43;;;25.90;68.10;;;;;;1935239;74;21183;-48
2021/07/13 00:53:05;;;;;;;12.58;9.08;;;25.90;68.20;;;;;;1935280;74;21007;-52
2021/07/13 00:55:35;;;;;;;14.80;9.00;;;25.80;68.50;;;;;;1935301;74;21019;-49
2021/07/13 00:58:05;;;;;;;12.58;8.58;;;25.80;68.80;;;;;;1934962;74;21092;-50
2021/07/13 01:00:34;;;;;;;10.50;9.05;;;25.80;69.00;;;;;;1935090;74;21027;-47
2021/07/13 01:03:05;;;;;;;12.20;9.13;;;25.80;69.10;;;;;;1935232;74;21047;-51
2021/07/13 01:05:43;;;;;;;13.72;9.53;;;25.80;69.10;;;;;;1934887;74;21077;-47
2021/07/13 01:08:21;;;;;;;13.70;8.83;;;25.80;69.10;;;;;;1935153;74;21043;-50
2021/07/13 01:10:53;;;;;;;10.95;8.85;;;25.80;69.20;;;;;;1934902;74;21035;-51
2021/07/13 01:13:43;;;;;;;12.78;9.63;;;25.80;69.30;;;;;;1934244;74;21035;-49
2021/07/13 01:16:25;;;;;;;11.63;9.48;;;25.80;69.50;;;;;;1935173;73;21074;-48
2021/07/13 01:19:28;;;;;;;15.65;10.20;;;25.80;69.60;;;;;;1935420;74;21106;-49
2021/07/13 01:22:12;;;;;;;14.93;9.55;;;25.70;69.70;;;;;;1935054;74;21023;-50
2021/07/13 01:25:12;;;;;;;17.12;9.45;;;25.70;69.80;;;;;;1935247;74;21539;-47
2021/07/13 01:27:50;;;;;;;9.53;8.53;;;25.60;70.00;;;;;;1935646;74;21015;-51
2021/07/13 01:30:22;;;;;;;10.48;9.35;;;25.60;70.30;;;;;;1935371;74;20983;-49
2021/07/13 01:32:57;;;;;;;14.00;9.88;;;25.60;70.40;;;;;;1935335;74;21485;-49
2021/07/13 01:35:32;;;;;;;14.43;10.08;;;25.60;70.40;;;;;;1929234;74;21043;-49
2021/07/13 01:38:03;;;;;;;12.50;10.38;;;25.60;70.30;;;;;;1922368;74;21016;-48
2021/07/13 01:40:33;;;;;;;15.63;10.25;;;25.60;70.50;;;;;;1923205;74;21027;-49
2021/07/13 01:43:05;;;;;;;14.93;10.68;;;25.40;70.60;;;;;;1923133;74;21051;-48
2021/07/13 01:45:35;;;;;;;11.40;9.35;;;25.40;71.20;;;;;;1923110;74;21081;-48
2021/07/13 01:48:04;;;;;;;12.47;8.65;;;25.40;71.60;;;;;;1923038;74;21000;-50
2021/07/13 01:50:34;;;;;;;10.75;8.73;;;25.40;71.80;;;;;;1922983;74;21024;-47
2021/07/13 01:53:04;;;;;;;11.60;8.98;;;25.50;72.20;;;;;;1923141;74;21020;-48
2021/07/13 01:55:34;;;;;;;11.65;8.98;;;25.50;72.30;;;;;;1923163;74;21067;-52
2021/07/13 01:58:04;;;;;;;10.18;7.80;;;25.60;72.50;;;;;;1923069;74;21024;-48
2021/07/13 02:00:34;;;;;;;12.20;8.83;;;25.60;72.50;;;;;;1923195;74;21087;-50
2021/07/13 02:03:05;;;;;;;12.65;8.85;;;25.70;72.50;;;;;;1923028;74;21097;-48
2021/07/13 02:05:35;;;;;;;8.88;7.92;;;25.70;72.40;;;;;;1923094;74;21091;-47
2021/07/13 02:08:06;;;;;;;12.40;8.00;;;25.80;72.50;;;;;;1923162;74;21047;-47
2021/07/13 02:10:36;;;;;;;9.60;8.65;;;25.80;72.30;;;;;;1923007;74;21031;-47
2021/07/13 02:13:08;;;;;;;8.03;7.22;;;25.80;72.30;;;;;;1923032;74;21027;-51
2021/07/13 02:15:38;;;;;;;11.53;8.85;;;25.80;72.20;;;;;;1923069;74;21466;-49
2021/07/13 02:18:08;;;;;;;9.23;8.10;;;25.90;72.10;;;;;;1923101;74;21000;-49
2021/07/13 02:20:37;;;;;;;10.35;8.28;;;25.90;72.00;;;;;;1923131;74;21089;-48
2021/07/13 02:23:07;;;;;;;9.65;8.08;;;25.90;72.00;;;;;;1923035;74;21019;-47
2021/07/13 02:25:38;;;;;;;9.73;8.73;;;26.00;72.10;;;;;;1923064;74;21094;-48
2021/07/13 02:28:33;;;;;;;10.63;8.83;;;26.00;72.10;;;;;;1923033;74;21016;-49
2021/07/13 02:31:11;;;;;;;9.50;8.45;;;26.00;72.20;;;;;;1923279;74;21039;-50
2021/07/13 02:33:55;;;;;;;13.60;8.70;;;26.00;72.50;;;;;;1922483;74;21035;-50
2021/07/13 02:36:27;;;;;;;10.82;8.55;;;26.00;72.70;;;;;;1908249;74;21058;-48
2021/07/13 02:38:57;;;;;;;10.25;9.15;;;26.00;72.40;;;;;;1923098;74;21043;-49
2021/07/13 02:41:28;;;;;;;12.37;9.25;;;26.00;72.60;;;;;;1923258;74;21019;-48
2021/07/13 02:43:58;;;;;;;13.10;8.55;;;26.00;72.60;;;;;;1923042;74;21042;-47
2021/07/13 02:46:30;;;;;;;10.18;8.65;;;26.00;72.70;;;;;;1923135;74;21023;-48
2021/07/13 02:49:00;;;;;;;9.43;8.30;;;26.00;72.70;;;;;;1923085;74;20996;-48
2021/07/13 02:51:31;;;;;;;10.60;8.83;;;26.00;72.70;;;;;;1923037;74;21016;-48
2021/07/13 02:54:01;;;;;;;11.18;8.95;;;26.10;72.80;;;;;;1923011;74;20995;-48
2021/07/13 02:56:30;;;;;;;11.80;9.73;;;26.10;72.60;;;;;;1923108;74;20996;-51
2021/07/13 02:59:02;;;;;;;16.02;8.78;;;26.10;72.50;;;;;;1923089;74;21015;-50
2021/07/13 03:01:32;;;;;;;32.90;18.10;;;26.10;72.40;;;;;;1922965;74;21019;-50
2021/07/13 03:04:04;;;;;;;29.45;16.23;;;26.10;72.40;;;;;;1923149;74;21020;-49
2021/07/13 03:06:34;;;;;;;21.42;14.00;;;26.10;72.50;;;;;;1923041;74;21071;-51
2021/07/13 03:09:08;;;;;;;19.90;13.83;;;26.10;72.70;;;;;;1923164;74;20988;-49
2021/07/13 03:11:38;;;;;;;18.77;14.68;;;26.00;72.80;;;;;;1923188;74;21122;-51
2021/07/13 03:14:09;;;;;;;22.02;15.38;;;25.90;73.10;;;;;;1923052;74;20999;-48
2021/07/13 03:16:39;;;;;;;17.98;13.45;;;25.80;73.20;;;;;;1923161;74;20999;-49
2021/07/13 03:19:11;;;;;;;21.15;15.55;;;25.80;73.50;;;;;;1923168;74;20996;-50
2021/07/13 03:21:43;;;;;;;17.73;13.03;;;25.70;73.70;;;;;;1923122;74;21014;-50
2021/07/13 03:24:14;;;;;;;13.68;11.95;;;25.70;73.70;;;;;;1923131;74;21458;-50
2021/07/13 03:26:45;;;;;;;25.02;16.05;;;25.80;73.70;;;;;;1923159;74;21027;-50
2021/07/13 03:29:15;;;;;;;66.85;31.42;;;25.80;73.60;;;;;;1923103;74;21123;-50
2021/07/13 03:31:45;;;;;;;52.58;33.28;;;25.80;73.50;;;;;;1923092;74;21086;-48
2021/07/13 03:34:15;;;;;;;46.70;32.88;;;25.80;73.50;;;;;;1923111;74;21039;-48
2021/07/13 03:36:47;;;;;;;28.87;21.52;;;25.90;73.60;;;;;;1928329;74;21039;-49
2021/07/13 03:39:18;;;;;;;37.75;26.15;;;25.90;73.60;;;;;;1935397;74;21019;-49
2021/07/13 03:41:49;;;;;;;30.37;19.42;;;26.00;73.60;;;;;;1935507;74;21112;-51
2021/07/13 03:44:18;;;;;;;20.05;15.83;;;26.00;73.70;;;;;;1935748;73;21019;-50
2021/07/13 03:46:48;;;;;;;34.03;20.25;;;26.00;73.80;;;;;;1935333;74;21027;-50
2021/07/13 03:49:17;;;;;;;28.87;17.27;;;26.00;74.00;;;;;;1935239;74;21054;-50
2021/07/13 03:51:47;;;;;;;25.92;14.65;;;26.10;74.10;;;;;;1935276;74;21019;-49
2021/07/13 03:54:18;;;;;;;12.20;9.48;;;26.10;74.00;;;;;;1934689;74;21291;-50
2021/07/13 03:56:50;;;;;;;15.68;11.40;;;26.20;73.80;;;;;;1935402;74;21027;-49
2021/07/13 03:59:19;;;;;;;11.03;9.83;;;26.20;73.40;;;;;;1935432;74;21158;-51
2021/07/13 04:01:49;;;;;;;27.37;10.53;;;26.30;73.30;;;;;;1935271;74;21031;-49
2021/07/13 04:04:18;;;;;;;11.90;9.43;;;26.40;73.20;;;;;;1934999;74;21023;-49
2021/07/13 04:06:48;;;;;;;11.80;9.00;;;26.40;72.90;;;;;;1935173;74;21105;-49
2021/07/13 04:09:17;;;;;;;10.93;8.73;;;26.40;72.80;;;;;;1935439;74;21034;-51
2021/07/13 04:11:47;;;;;;;11.28;9.28;;;26.40;72.70;;;;;;1935220;74;21051;-51
2021/07/13 04:14:16;;;;;;;15.72;9.30;;;26.50;72.70;;;;;;1935570;74;21085;-49
2021/07/13 04:16:46;;;;;;;12.70;10.08;;;26.60;72.60;;;;;;1935253;73;21073;-47
2021/07/13 04:19:15;;;;;;;10.55;8.83;;;26.70;72.30;;;;;;1935153;74;21031;-48
2021/07/13 04:21:45;;;;;;;10.53;8.78;;;26.90;71.90;;;;;;1935551;74;21016;-47
2021/07/13 04:24:15;;;;;;;9.58;8.50;;;26.90;71.40;;;;;;1935221;74;20996;-50
2021/07/13 04:26:44;;;;;;;9.85;8.30;;;27.00;71.30;;;;;;1935147;74;21074;-48
2021/07/13 04:29:14;;;;;;;11.35;8.80;;;27.10;71.00;;;;;;1935117;74;21105;-49
2021/07/13 04:31:43;;;;;;;17.35;8.30;;;27.10;70.70;;;;;;1935306;74;21092;-51
2021/07/13 04:34:13;;;;;;;12.10;8.63;;;27.20;70.50;;;;;;1935424;74;21157;-50
2021/07/13 04:36:42;;;;;;;15.15;10.50;;;27.20;70.30;;;;;;1933431;73;21109;-48
2021/07/13 04:39:12;;;;;;;16.02;10.45;;;27.20;70.20;;;;;;1922913;74;21051;-48
2021/07/13 04:41:41;;;;;;;15.72;10.98;;;27.20;70.30;;;;;;1922915;74;21059;-50
2021/07/13 04:44:11;;;;;;;17.30;11.40;;;27.20;70.20;;;;;;1922867;74;21039;-51
2021/07/13 04:46:40;;;;;;;16.50;11.73;;;27.20;70.30;;;;;;1925126;74;21027;-51
2021/07/13 04:49:09;;;;;;;21.42;13.60;;;27.20;70.30;;;;;;1922954;74;21027;-51
2021/07/13 04:51:39;;;;;;;14.23;12.18;;;27.20;70.60;;;;;;1922919;74;21474;-49
2021/07/13 04:54:08;;;;;;;14.70;11.03;;;27.20;71.40;;;;;;1922979;74;21040;-49
2021/07/13 04:56:37;;;;;;;19.48;13.35;;;27.20;71.00;;;;;;1922568;74;21027;-51
2021/07/13 04:59:07;;;;;;;19.48;13.00;;;27.20;71.10;;;;;;1922863;74;21085;-49
2021/07/13 05:01:36;;;;;;;19.73;13.32;;;27.30;71.60;;;;;;1922643;74;21145;-51
2021/07/13 05:04:06;;;;;;;17.98;12.50;;;27.40;71.40;;;;;;1922770;74;21024;-50
2021/07/13 05:06:36;;;;;;;19.50;11.38;;;27.50;70.70;;;;;;1922577;74;21024;-51
2021/07/13 05:09:05;;;;;;;12.58;10.58;;;27.50;70.40;;;;;;1922761;74;21090;-50
2021/07/13 05:11:35;;;;;;;12.47;10.93;;;27.60;70.30;;;;;;1922605;74;21044;-50
2021/07/13 05:14:05;;;;;;;15.70;11.57;;;27.70;70.50;;;;;;1922800;74;21059;-49
2021/07/13 05:16:34;;;;;;;13.65;12.25;;;27.80;70.70;;;;;;1922684;74;21087;-52
2021/07/13 05:19:04;;;;;;;16.25;11.78;;;27.90;70.50;;;;;;1922747;74;21028;-51
2021/07/13 05:21:33;;;;;;;15.13;10.70;;;28.00;70.40;;;;;;1922924;74;21019;-50
2021/07/13 05:24:02;;;;;;;12.50;10.72;;;28.00;70.00;;;;;;1922879;74;21027;-49
2021/07/13 05:26:31;;;;;;;13.22;8.93;;;28.00;69.70;;;;;;1923228;74;21466;-52
2021/07/13 05:29:03;;;;;;;13.50;9.55;;;28.10;69.60;;;;;;1922877;74;21082;-51
2021/07/13 05:31:33;;;;;;;15.68;9.65;;;28.10;69.30;;;;;;1922863;74;21090;-51
2021/07/13 05:34:02;;;;;;;12.37;9.38;;;28.20;69.00;;;;;;1922626;74;21016;-51
2021/07/13 05:36:32;;;;;;;12.75;9.38;;;28.30;68.80;;;;;;1923015;74;21000;-49
2021/07/13 05:39:01;;;;;;;23.67;9.98;;;28.30;68.60;;;;;;1922620;74;21055;-50
2021/07/13 05:41:30;;;;;;;13.18;9.35;;;28.40;68.40;;;;;;1923056;74;21105;-49
2021/07/13 05:44:00;;;;;;;12.03;9.38;;;28.50;68.30;;;;;;1922895;74;21035;-50
2021/07/13 05:46:29;;;;;;;12.30;9.45;;;28.60;67.70;;;;;;1922969;74;21025;-48
2021/07/13 05:48:58;;;;;;;13.60;9.50;;;28.60;67.60;;;;;;1923025;74;21096;-51
2021/07/13 05:51:28;;;;;;;14.47;9.13;;;28.70;67.50;;;;;;1922718;74;21028;-51
2021/07/13 05:53:58;;;;;;;14.28;9.70;;;28.80;67.10;;;;;;1922910;74;21043;-50
2021/07/13 05:56:27;;;;;;;12.65;9.40;;;28.90;66.60;;;;;;1922754;74;21027;-50
2021/07/13 05:58:56;;;;;;;11.78;9.00;;;29.00;66.30;;;;;;1922923;74;21028;-49
2021/07/13 06:01:25;;;;;;;17.73;9.28;;;29.10;65.90;;;;;;1922816;74;21036;-51
2021/07/13 06:03:55;;;;;;;10.13;7.80;;;29.20;65.40;;;;;;1923049;74;21136;-50
2021/07/13 06:06:26;;;;;;;10.43;8.53;;;29.30;65.00;;;;;;1923016;74;21052;-48
2021/07/13 06:08:55;;;;;;;13.20;9.45;;;29.30;64.80;;;;;;1922978;74;21563;-51
2021/07/13 06:11:25;;;;;;;15.00;8.88;;;29.40;64.50;;;;;;1923047;74;21078;-51
2021/07/13 06:13:54;;;;;;;13.68;8.90;;;29.50;64.50;;;;;;1923134;74;21133;-49
2021/07/13 06:16:23;;;;;;;13.08;8.65;;;29.60;64.30;;;;;;1923029;74;21081;-52
2021/07/13 06:18:53;;;;;;;10.95;9.48;;;29.70;63.60;;;;;;1922969;74;21097;-51
2021/07/13 06:21:22;;;;;;;14.03;9.20;;;29.70;63.50;;;;;;1922943;74;21014;-52
2021/07/13 06:23:52;;;;;;;11.68;8.90;;;29.70;63.80;;;;;;1922963;74;21035;-51
2021/07/13 06:26:21;;;;;;;19.55;9.83;;;29.80;63.30;;;;;;1922810;74;21027;-51
2021/07/13 06:28:50;;;;;;;9.50;7.70;;;29.90;62.50;;;;;;1922997;74;21085;-55
2021/07/13 06:31:20;;;;;;;8.15;7.35;;;30.00;62.40;;;;;;1923019;74;21011;-55
2021/07/13 06:33:49;;;;;;;8.93;7.95;;;30.10;62.20;;;;;;1922353;74;21075;-54
2021/07/13 06:36:19;;;;;;;10.48;8.35;;;30.20;61.60;;;;;;1922000;74;21094;-55
2021/07/13 06:38:48;;;;;;;12.20;8.50;;;30.20;61.40;;;;;;1922109;74;21175;-54
2021/07/13 06:41:18;;;;;;;11.38;7.80;;;30.20;61.30;;;;;;1922335;74;21083;-55
2021/07/13 06:43:47;;;;;;;11.45;8.60;;;30.30;61.50;;;;;;1922478;74;21227;-55
2021/07/13 06:46:16;;;;;;;16.87;8.75;;;30.40;61.20;;;;;;1922299;74;20999;-54
2021/07/13 06:48:46;;;;;;;9.63;8.48;;;30.50;60.40;;;;;;1922408;74;21027;-52
2021/07/13 06:51:15;;;;;;;13.13;8.45;;;30.50;59.40;;;;;;1922356;74;21077;-55
2021/07/13 06:53:45;;;;;;;12.35;8.13;;;30.60;59.20;;;;;;1922455;74;21161;-55
2021/07/13 06:56:15;;;;;;;11.48;8.60;;;30.60;59.60;;;;;;1922215;74;21108;-55
2021/07/13 06:58:44;;;;;;;12.10;8.70;;;30.60;59.30;;;;;;1922551;74;21132;-55
2021/07/13 07:01:14;;;;;;;20.62;7.83;;;30.70;58.60;;;;;;1922552;74;21596;-55
2021/07/13 07:03:43;;;;;;;10.32;8.03;;;30.70;58.70;;;;;;1922302;74;21027;-54
2021/07/13 07:06:12;;;;;;;13.90;8.80;;;30.70;59.10;;;;;;1922858;74;21000;-55
2021/07/13 07:08:42;;;;;;;11.60;7.75;;;30.70;59.00;;;;;;1922017;74;21177;-55
2021/07/13 07:11:11;;;;;;;10.23;8.38;;;30.80;59.40;;;;;;1922687;74;20988;-55
2021/07/13 07:13:41;;;;;;;14.63;9.20;;;30.90;59.00;;;;;;1922885;74;21051;-55
2021/07/13 07:16:11;;;;;;;11.30;8.50;;;30.90;59.40;;;;;;1922831;74;21047;-55
2021/07/13 07:18:40;;;;;;;10.93;8.20;;;30.90;59.10;;;;;;1923294;74;20999;-55
2021/07/13 07:21:11;;;;;;;11.68;8.78;;;31.00;59.00;;;;;;1922748;74;21031;-55
2021/07/13 07:23:41;;;;;;;13.20;9.48;;;31.00;58.40;;;;;;1923055;74;21455;-55
2021/07/13 07:26:10;;;;;;;16.32;9.13;;;30.90;58.70;;;;;;1922939;74;20992;-55
2021/07/13 07:28:40;;;;;;;11.15;8.65;;;31.00;58.90;;;;;;1921810;74;21032;-55
2021/07/13 07:31:09;;;;;;;11.30;8.85;;;31.10;58.70;;;;;;1923023;74;21051;-52
2021/07/13 07:33:39;;;;;;;12.15;8.95;;;31.10;58.00;;;;;;1923204;74;21082;-50
2021/07/13 07:36:08;;;;;;;10.95;9.00;;;31.10;57.90;;;;;;1923075;74;21028;-50
2021/07/13 07:38:38;;;;;;;12.58;8.80;;;31.20;58.20;;;;;;1926128;74;21051;-50
2021/07/13 07:41:08;;;;;;;12.68;8.95;;;31.20;58.10;;;;;;1935138;74;21051;-52
2021/07/13 07:43:37;;;;;;;49.83;45.15;;;31.30;57.80;;;;;;1935317;74;21028;-50
2021/07/13 07:46:07;;;;;;;16.57;8.60;;;31.40;57.40;;;;;;1935730;74;21047;-50
2021/07/13 07:48:36;;;;;;;12.05;9.48;;;31.40;57.30;;;;;;1935415;74;21093;-50
2021/07/13 07:51:06;;;;;;;13.80;8.83;;;31.50;56.90;;;;;;1935195;74;21027;-51
2021/07/13 07:53:35;;;;;;;15.75;9.38;;;31.50;56.90;;;;;;1935727;74;21137;-50
2021/07/13 07:56:06;;;;;;;12.07;8.78;;;31.60;57.00;;;;;;1935318;74;21073;-50
2021/07/13 07:58:35;;;;;;;16.15;9.90;;;31.70;56.90;;;;;;1935700;74;21156;-50
2021/07/13 08:01:05;;;;;;;11.93;9.28;;;31.80;56.50;;;;;;1935395;73;21046;-51
2021/07/13 08:03:34;;;;;;;12.37;9.38;;;31.90;56.00;;;;;;1935291;74;21043;-51
2021/07/13 08:06:04;;;;;;;10.40;8.78;;;31.90;55.70;;;;;;1935332;74;21015;-50
2021/07/13 08:08:33;;;;;;;13.10;9.50;;;32.00;55.90;;;;;;1934964;74;21027;-51
2021/07/13 08:11:02;;;;;;;12.07;9.18;;;32.00;55.90;;;;;;1935331;74;21450;-50
2021/07/13 08:13:32;;;;;;;14.47;10.45;;;32.00;56.80;;;;;;1935364;74;21035;-49
2021/07/13 08:16:01;;;;;;;12.65;9.45;;;32.00;55.90;;;;;;1934980;74;21027;-48
2021/07/13 08:18:30;;;;;;;13.15;9.70;;;31.90;55.60;;;;;;1935312;74;21081;-49
2021/07/13 08:21:00;;;;;;;17.15;9.20;;;31.90;55.80;;;;;;1935318;74;21051;-50
2021/07/13 08:23:30;;;;;;;12.58;8.80;;;31.90;55.60;;;;;;1935381;74;21023;-48
2021/07/13 08:25:59;;;;;;;11.05;9.38;;;31.90;55.80;;;;;;1935215;73;21035;-49
2021/07/13 08:28:28;;;;;;;15.38;10.75;;;31.90;55.60;;;;;;1935147;73;21093;-49
2021/07/13 08:30:58;;;;;;;10.98;9.18;;;31.90;55.60;;;;;;1935101;74;21023;-50
2021/07/13 08:33:27;;;;;;;13.83;9.53;;;31.90;55.40;;;;;;1935157;74;21047;-50
2021/07/13 08:35:56;;;;;;;16.00;10.43;;;31.80;55.80;;;;;;1935120;73;21081;-48
2021/07/13 08:38:25;;;;;;;12.15;9.68;;;31.80;56.20;;;;;;1935565;74;21571;-48
2021/07/13 08:40:56;;;;;;;14.98;10.58;;;31.80;56.50;;;;;;1934997;74;21075;-48
2021/07/13 08:43:26;;;;;;;14.25;10.25;;;31.80;56.30;;;;;;1935301;74;21109;-48
2021/07/13 08:45:56;;;;;;;19.67;10.15;;;31.60;56.70;;;;;;1934912;74;21074;-49
2021/07/13 08:48:26;;;;;;;16.37;10.03;;;31.50;57.60;;;;;;1935319;74;21140;-51
2021/07/13 08:51:00;;;;;;;14.15;9.63;;;31.40;58.00;;;;;;1935044;74;21191;-49
2021/07/13 08:53:30;;;;;;;14.55;10.55;;;31.40;58.00;;;;;;1935108;74;21031;-48
2021/07/13 08:56:00;;;;;;;18.98;9.80;;;31.40;58.00;;;;;;1935694;74;21081;-51
2021/07/13 08:58:29;;;;;;;14.75;8.50;;;31.40;58.10;;;;;;1934839;74;21028;-48
2021/07/13 10:11:53;;;;;;;18.27;10.38;;;32.30;55.90;;;;;;1960180;72;28045;-49
2021/07/13 10:14:23;;;;;;;14.83;9.43;;;33.20;53.60;;;;;;1953813;72;21096;-48
2021/07/13 10:16:52;;;;;;;16.90;9.30;;;33.20;53.50;;;;;;1953726;73;21050;-51
2021/07/13 10:19:23;;;;;;;14.78;10.00;;;33.30;53.10;;;;;;1953814;73;21089;-49
2021/07/13 10:21:52;;;;;;;18.42;9.50;;;33.30;53.20;;;;;;1953750;73;21015;-49
2021/07/13 10:24:26;;;;;;;17.80;10.70;;;33.20;53.30;;;;;;1953788;72;21035;-49
2021/07/13 10:26:55;;;;;;;14.10;9.53;;;33.20;53.40;;;;;;1954045;73;20991;-50
2021/07/13 10:29:36;;;;;;;13.88;10.15;;;33.10;53.20;;;;;;1953662;73;21006;-50
2021/07/13 10:32:08;;;;;;;12.37;9.43;;;33.10;53.10;;;;;;1953739;73;21492;-48
2021/07/13 10:34:52;;;;;;;13.83;9.60;;;33.10;53.90;;;;;;1953699;73;21011;-49
2021/07/13 10:37:30;;;;;;;13.85;9.08;;;33.10;54.00;;;;;;1954046;73;21123;-48
2021/07/13 10:40:07;;;;;;;22.40;10.63;;;33.10;53.80;;;;;;1953695;72;21480;-50
2021/07/13 10:42:45;;;;;;;16.32;9.55;;;33.10;53.90;;;;;;1953974;73;21046;-50
2021/07/13 10:45:44;;;;;;;16.48;9.83;;;33.10;54.20;;;;;;1953702;72;21027;-52
2021/07/13 10:48:20;;;;;;;14.75;10.28;;;33.10;54.40;;;;;;1953976;72;21031;-51
2021/07/13 10:51:03;;;;;;;11.38;9.88;;;33.10;54.40;;;;;;1953886;73;21015;-51
2021/07/13 10:53:35;;;;;;;13.40;9.73;;;33.10;54.80;;;;;;1953650;73;21062;-50
2021/07/13 10:56:12;;;;;;;19.17;11.03;;;33.10;54.80;;;;;;1953622;72;21019;-49
2021/07/13 10:58:46;;;;;;;14.13;10.78;;;33.10;54.60;;;;;;1953792;73;21054;-49
2021/07/13 11:01:21;;;;;;;12.93;10.48;;;33.10;54.80;;;;;;1953619;73;21026;-50
2021/07/13 11:03:53;;;;;;;16.42;10.30;;;33.00;54.80;;;;;;1953812;73;21100;-51
2021/07/13 11:06:25;;;;;;;17.37;10.43;;;33.00;54.60;;;;;;1953725;73;21073;-51
2021/07/13 11:08:56;;;;;;;14.25;9.40;;;33.00;54.30;;;;;;1940817;73;21019;-51
2021/07/13 11:11:32;;;;;;;21.50;10.10;;;33.00;54.70;;;;;;1963395;73;21038;-48
2021/07/13 11:14:10;;;;;;;12.35;9.50;;;33.00;55.20;;;;;;1970115;72;21074;-49
2021/07/13 11:16:41;;;;;;;19.15;9.30;;;32.90;54.90;;;;;;1969817;73;21026;-49
2021/07/13 11:19:12;;;;;;;18.42;10.43;;;32.80;55.10;;;;;;1890058;76;21037;-51
2021/07/13 11:21:44;;;;;;;17.07;9.28;;;32.80;54.70;;;;;;1969675;72;21057;-50
2021/07/13 11:24:19;;;;;;;18.87;9.40;;;32.90;54.90;;;;;;1969866;73;21432;-49
2021/07/13 11:26:51;;;;;;;15.60;8.80;;;32.90;54.90;;;;;;1969704;73;21030;-50
2021/07/13 11:29:28;;;;;;;15.80;8.38;;;33.00;54.60;;;;;;1969689;72;21014;-47
2021/07/13 11:32:00;;;;;;;15.05;8.28;;;33.00;53.50;;;;;;1969848;73;21108;-50
2021/07/13 11:34:36;;;;;;;10.85;7.85;;;33.00;51.30;;;;;;1969801;73;21487;-53
2021/07/13 11:37:06;;;;;;;14.38;7.42;;;33.10;51.20;;;;;;1969724;73;21022;-47
2021/07/13 11:39:38;;;;;;;21.52;7.83;;;33.10;50.20;;;;;;1969819;73;21121;-51
2021/07/13 11:42:10;;;;;;;11.78;7.87;;;33.10;50.20;;;;;;1969714;73;21091;-51
2021/07/13 11:44:42;;;;;;;15.28;7.80;;;33.20;50.20;;;;;;1969743;73;20982;-50
2021/07/13 11:47:13;;;;;;;21.80;7.85;;;33.40;48.80;;;;;;1969802;73;21070;-49
2021/07/13 11:49:43;;;;;;;20.77;7.53;;;33.50;47.80;;;;;;1969629;73;21050;-51
2021/07/13 11:52:14;;;;;;;12.98;7.30;;;33.50;46.30;;;;;;1969693;72;20991;-50
2021/07/13 11:54:47;;;;;;;12.28;7.62;;;33.50;46.40;;;;;;1969718;73;21041;-51
2021/07/13 11:57:19;;;;;;;13.85;6.17;;;33.50;45.90;;;;;;1969860;73;21072;-51
2021/07/13 11:59:49;;;;;;;11.97;7.50;;;33.50;45.20;;;;;;1969794;73;21097;-51
2021/07/13 12:02:19;;;;;;;10.23;7.25;;;33.40;45.00;;;;;;1969711;73;21034;-47
2021/07/13 12:04:50;;;;;;;21.33;8.95;;;33.30;44.50;;;;;;1969733;72;21014;-50
2021/07/13 12:07:20;;;;;;;15.35;7.25;;;33.30;44.60;;;;;;1890091;76;21103;-51
2021/07/13 12:09:50;;;;;;;13.72;10.18;;;33.50;44.30;;;;;;1969660;73;21083;-49
2021/07/13 12:12:20;;;;;;;17.32;8.28;;;33.50;44.10;;;;;;1957798;73;21014;-50
2021/07/13 12:14:55;;;;;;;18.77;8.95;;;33.60;45.10;;;;;;1952922;73;20995;-50
2021/07/13 12:17:26;;;;;;;25.77;9.08;;;33.70;45.20;;;;;;1953124;73;21011;-51
2021/07/13 12:19:56;;;;;;;16.55;8.45;;;33.80;45.70;;;;;;1953043;72;21031;-51
2021/07/13 12:22:26;;;;;;;15.93;9.35;;;33.90;45.40;;;;;;1952984;73;21023;-51
2021/07/13 12:25:00;;;;;;;16.57;9.28;;;33.90;45.60;;;;;;1952942;73;21080;-51
2021/07/13 12:27:32;;;;;;;17.95;9.88;;;34.00;45.90;;;;;;1952095;72;21073;-51
2021/07/13 12:30:10;;;;;;;15.58;9.43;;;33.90;46.00;;;;;;1952138;73;21127;-51
2021/07/13 12:32:38;;;;;;;20.32;10.45;;;33.90;46.10;;;;;;1953106;73;21062;-52
2021/07/13 12:35:11;;;;;;;17.42;9.78;;;33.90;46.40;;;;;;1952989;72;21014;-51
2021/07/13 12:37:42;;;;;;;15.25;9.63;;;33.90;46.50;;;;;;1953072;73;21084;-51
2021/07/13 12:40:12;;;;;;;12.40;9.23;;;33.90;46.60;;;;;;1953046;73;20990;-51
2021/07/13 12:42:49;;;;;;;16.35;9.65;;;33.80;46.80;;;;;;1952987;73;21026;-51
2021/07/13 12:45:25;;;;;;;16.73;10.28;;;33.80;47.10;;;;;;1953050;72;21094;-51
2021/07/13 12:47:55;;;;;;;17.37;9.30;;;33.80;47.10;;;;;;1953129;73;21027;-51
2021/07/13 12:50:27;;;;;;;20.45;10.32;;;33.80;47.30;;;;;;1953041;73;21477;-51
2021/07/13 12:53:15;;;;;;;18.02;9.60;;;33.70;47.40;;;;;;1952998;73;21003;-50
2021/07/13 12:55:52;;;;;;;23.80;10.28;;;33.60;47.60;;;;;;1951596;73;21068;-50
2021/07/13 12:58:24;;;;;;;15.70;10.18;;;33.60;47.90;;;;;;1950736;73;21500;-52
2021/07/13 13:00:56;;;;;;;18.57;10.90;;;33.60;48.00;;;;;;1953036;73;21149;-52
2021/07/13 13:03:28;;;;;;;16.17;8.73;;;33.70;48.20;;;;;;1952955;73;21007;-52
2021/07/13 13:06:02;;;;;;;16.50;8.08;;;33.70;47.90;;;;;;1953092;73;21020;-51
2021/07/13 13:08:36;;;;;;;15.43;8.08;;;33.70;47.30;;;;;;1953144;73;21015;-51
2021/07/13 13:11:12;;;;;;;18.80;7.72;;;33.80;46.40;;;;;;1952995;73;21007;-52
2021/07/13 13:13:43;;;;;;;30.15;18.73;;;33.90;45.80;;;;;;1959729;73;21487;-50
2021/07/13 13:16:21;;;;;;;14.78;8.18;;;33.90;45.00;;;;;;1959636;72;21001;-52
2021/07/13 13:18:52;;;;;;;13.62;6.50;;;34.00;45.10;;;;;;1959152;73;21080;-52
2021/07/13 13:21:21;;;;;;;14.73;5.60;;;34.00;44.10;;;;;;1959588;73;21100;-51
2021/07/13 13:23:57;;;;;;;19.73;6.20;;;34.00;43.30;;;;;;1883434;76;21132;-52
2021/07/13 13:26:27;;;;;;;11.60;5.47;;;33.90;42.60;;;;;;1950036;73;20974;-53
2021/07/13 13:28:57;;;;;;;11.53;5.50;;;33.80;42.30;;;;;;1949881;73;21002;-51
2021/07/13 13:31:26;;;;;;;15.50;6.87;;;33.70;42.20;;;;;;1950041;73;21010;-52
2021/07/13 13:33:56;;;;;;;14.73;6.22;;;33.70;42.40;;;;;;1949882;72;21005;-50
2021/07/13 13:36:29;;;;;;;9.08;5.42;;;33.60;42.20;;;;;;1950096;73;21002;-52
2021/07/13 13:39:14;;;;;;;14.15;5.92;;;33.60;42.90;;;;;;1949934;73;21064;-52
2021/07/13 13:41:36;;;;;;;12.63;5.95;;;33.60;43.40;;;;;;1948139;73;21091;-52
2021/07/13 13:44:06;;;;;;;18.87;8.45;;;33.50;43.70;;;;;;1949909;73;21087;-52
2021/07/13 13:46:35;;;;;;;11.38;7.42;;;33.50;43.80;;;;;;1949985;73;21006;-52
2021/07/13 13:49:05;;;;;;;16.82;7.08;;;33.50;44.10;;;;;;1950013;73;21010;-51
2021/07/13 13:51:35;;;;;;;16.05;6.85;;;33.50;44.10;;;;;;1949992;73;21005;-48
2021/07/13 13:54:04;;;;;;;21.27;8.68;;;33.40;44.30;;;;;;1949986;73;21147;-51
2021/07/13 13:56:34;;;;;;;12.80;6.78;;;33.40;44.50;;;;;;1949975;73;21067;-48
2021/07/13 13:59:03;;;;;;;10.43;6.33;;;33.40;45.00;;;;;;1949864;73;21014;-51
2021/07/13 14:01:33;;;;;;;20.40;8.20;;;33.40;44.90;;;;;;1949945;72;21009;-51
2021/07/13 14:04:02;;;;;;;30.48;9.10;;;33.30;45.30;;;;;;1949959;73;21061;-51
2021/07/13 14:06:32;;;;;;;16.30;9.00;;;33.30;45.60;;;;;;1950173;73;21111;-52